Main page
METAR-TAF:

METAR-TAF

Airports :

Uzhhorod International Airport

Uzhhorod, Ukraine

latitude: 48-38-05N, longitude: 022-15-53E, elevation: 117 m

Current weather observation

The report was made 25 minutes ago, at 07:00 UTC
Wind 2 kt from variable directions
Temperature 26°C
Humidity 58%
Pressure 1012 hPa
Visibility 10 km or more

METAR: UKLU 300700Z VRB01MPS 9999 NSC 26/17 Q1012 R10/090070 NOSIG

Time: 10:25 (07:25 UTC)

Forecast

The report was made 2 hours and 24 minutes ago, at 05:01 UTC
Forecast valid from 30 at 06 UTC to 30 at 15 UTC
Wind 6 kt from the Southeast
Visibility 10 km or more
Temporary
from 30 at 06 UTC to 30 at 12 UTC
Wind 10 kt from variable directions with gusts up to 19 kt
Scattered clouds at a height of 3300 ft, Cumulonimbus.
light rain showers

TAF: UKLU 300501Z 3006/3015 13003MPS 9999 NSC TX30/3013Z TN22/3006Z TEMPO 3006/3012 VRB05G10MPS -SHRA SCT033CB

Weather observations and forecasts of more than 4000 airports (METAR and TAF reports).

The available stations are represented by yellow and red dots on the map.

Hover mouse over dot to see the name of the station.

Then click to see weather observations and forecasts.

To change the map : click on the green buttons with a black cross to zoom in, on the green button with a dash to zoom out, or on the green arrows for adjacent maps.


METAR-TAF: